createdAt,value
2018-06-04T00:00:25.418Z,10.57
2018-06-04T00:02:54.073Z,9.07
2018-06-04T00:05:22.692Z,8.47
2018-06-04T00:07:51.324Z,12.10
2018-06-04T00:10:19.986Z,10.93
2018-06-04T00:12:48.345Z,9.23
2018-06-04T00:15:17.060Z,12.37
2018-06-04T00:17:45.682Z,10.17
2018-06-04T00:20:14.353Z,10.33
2018-06-04T00:22:43.055Z,9.00
2018-06-04T00:25:11.711Z,11.37
2018-06-04T00:27:40.374Z,10.30
2018-06-04T00:30:09.023Z,10.77
2018-06-04T00:32:37.677Z,9.73
2018-06-04T00:35:06.329Z,11.50
2018-06-04T00:37:34.971Z,13.10
2018-06-04T00:40:03.653Z,13.37
2018-06-04T00:42:32.266Z,14.47
2018-06-04T00:45:00.635Z,10.27
2018-06-04T00:47:29.297Z,15.27
2018-06-04T00:49:57.994Z,13.60
2018-06-04T00:52:26.654Z,11.03
2018-06-04T00:54:55.282Z,10.87
2018-06-04T00:57:23.942Z,10.77
2018-06-04T00:59:52.618Z,12.87
2018-06-04T01:02:21.258Z,11.13
2018-06-04T01:04:49.917Z,10.10
2018-06-04T01:07:18.571Z,9.97
2018-06-04T01:09:47.289Z,11.10
2018-06-04T01:12:15.922Z,12.83
2018-06-04T01:14:45.137Z,13.07
2018-06-04T01:17:13.781Z,14.47
2018-06-04T01:19:42.492Z,14.23
2018-06-04T01:22:11.158Z,12.90
2018-06-04T01:24:39.801Z,13.07
2018-06-04T01:27:08.517Z,16.37
2018-06-04T01:29:37.160Z,13.40
2018-06-04T01:32:05.847Z,16.07
2018-06-04T01:34:34.519Z,14.70
2018-06-04T01:37:03.187Z,12.87
2018-06-04T01:39:31.849Z,15.63
2018-06-04T01:42:00.542Z,13.97
2018-06-04T01:44:29.260Z,16.60
2018-06-04T01:46:57.953Z,14.47
2018-06-04T01:49:26.549Z,16.97
2018-06-04T01:51:55.196Z,17.13
2018-06-04T01:54:23.861Z,16.73
2018-06-04T01:56:52.505Z,16.87
2018-06-04T01:59:21.213Z,18.20
2018-06-04T02:01:49.477Z,16.87
2018-06-04T02:04:18.136Z,15.80
2018-06-04T02:06:46.904Z,13.83
2018-06-04T02:09:15.558Z,14.20
2018-06-04T02:11:44.215Z,20.47
2018-06-04T02:14:12.871Z,15.93
2018-06-04T02:16:41.550Z,18.60
2018-06-04T02:19:10.242Z,16.93
2018-06-04T02:21:38.911Z,17.27
2018-06-04T02:24:07.534Z,16.80
2018-06-04T02:26:36.223Z,18.47
2018-06-04T02:29:04.895Z,18.77
2018-06-04T02:31:33.558Z,19.60
2018-06-04T02:34:02.170Z,19.43
2018-06-04T02:36:30.857Z,21.30
2018-06-04T02:38:59.491Z,18.63
2018-06-04T02:41:28.229Z,16.93
2018-06-04T02:43:56.886Z,16.90
2018-06-04T02:46:25.570Z,16.97
2018-06-04T02:48:54.207Z,18.97
2018-06-04T02:51:22.899Z,19.80
2018-06-04T02:53:51.526Z,17.73
2018-06-04T02:56:20.267Z,23.83
2018-06-04T02:58:48.994Z,22.17
2018-06-04T03:01:17.642Z,18.20
2018-06-04T03:03:46.262Z,23.87
2018-06-04T03:06:14.974Z,23.20
2018-06-04T03:08:43.646Z,20.97
2018-06-04T03:11:12.326Z,21.07
2018-06-04T03:13:40.955Z,22.80
2018-06-04T03:16:09.634Z,16.83
2018-06-04T03:18:38.298Z,25.83
2018-06-04T03:21:06.991Z,25.13
2018-06-04T03:23:35.641Z,24.00
2018-06-04T03:26:04.370Z,17.47
2018-06-04T03:28:33.080Z,23.00
2018-06-04T03:31:01.758Z,20.17
2018-06-04T03:33:30.445Z,22.63
2018-06-04T03:35:59.066Z,24.43
2018-06-04T03:38:27.717Z,25.00
2018-06-04T03:40:56.365Z,21.97
2018-06-04T03:43:25.061Z,20.80
2018-06-04T03:45:53.712Z,21.07
2018-06-04T03:48:22.383Z,22.80
2018-06-04T03:50:51.058Z,25.00
2018-06-04T03:53:19.714Z,20.80
2018-06-04T03:55:48.374Z,20.23
2018-06-04T03:58:17.014Z,19.90
2018-06-04T04:00:45.640Z,22.27
2018-06-04T04:03:14.293Z,22.47
2018-06-04T04:05:43.008Z,24.07
2018-06-04T04:08:11.722Z,22.07
2018-06-04T04:10:40.366Z,23.50
2018-06-04T04:13:09.019Z,22.53
2018-06-04T04:15:37.730Z,23.30
2018-06-04T04:18:06.363Z,22.13
2018-06-04T04:20:34.707Z,25.07
2018-06-04T04:23:03.347Z,23.87
2018-06-04T04:25:31.986Z,19.93
2018-06-04T04:28:00.679Z,27.13
2018-06-04T04:30:29.298Z,28.20
2018-06-04T04:32:57.974Z,25.60
2018-06-04T04:35:26.685Z,25.03
2018-06-04T04:37:55.422Z,22.97
2018-06-04T04:40:24.143Z,22.67
2018-06-04T04:42:52.909Z,19.57
2018-06-04T04:45:21.550Z,21.90
2018-06-04T04:47:50.204Z,17.53
2018-06-04T04:50:18.878Z,20.77
2018-06-04T04:52:47.529Z,19.47
2018-06-04T04:55:16.238Z,21.57
2018-06-04T04:57:44.907Z,20.23
2018-06-04T05:00:13.562Z,20.20
2018-06-04T05:02:42.225Z,22.73
2018-06-04T05:05:10.894Z,24.40
2018-06-04T05:07:39.567Z,19.83
2018-06-04T05:10:08.196Z,19.53
2018-06-04T05:12:36.891Z,18.87
2018-06-04T05:15:05.655Z,20.40
2018-06-04T05:17:34.303Z,20.63
2018-06-04T05:20:03.002Z,17.93
2018-06-04T05:22:31.687Z,23.50
2018-06-04T05:25:00.346Z,22.83
2018-06-04T05:27:28.971Z,21.13
2018-06-04T05:29:57.741Z,18.93
2018-06-04T05:32:26.456Z,20.20
2018-06-04T05:34:55.158Z,20.73
2018-06-04T05:37:23.833Z,21.30
2018-06-04T05:39:52.512Z,25.23
2018-06-04T05:42:21.139Z,19.90
2018-06-04T05:44:49.813Z,23.63
2018-06-04T05:47:18.457Z,21.93
2018-06-04T05:49:47.182Z,22.40
2018-06-04T05:52:15.878Z,21.23
2018-06-04T05:54:44.562Z,19.43
2018-06-04T05:57:13.255Z,18.33
2018-06-04T05:59:41.919Z,24.27
2018-06-04T06:02:10.554Z,22.03
2018-06-04T06:04:39.242Z,18.93
2018-06-04T06:07:07.910Z,20.23
2018-06-04T06:09:36.565Z,20.63
2018-06-04T06:12:05.229Z,18.43
2018-06-04T06:14:33.873Z,19.93
2018-06-04T06:17:02.545Z,17.93
2018-06-04T06:19:31.201Z,17.43
2018-06-04T06:21:59.986Z,23.00
2018-06-04T06:24:28.651Z,20.47
2018-06-04T06:26:57.321Z,17.27
2018-06-04T06:29:26.011Z,20.13
2018-06-04T06:31:54.717Z,21.37
2018-06-04T06:34:23.403Z,18.73
2018-06-04T06:36:52.029Z,19.83
2018-06-04T06:39:20.675Z,24.90
2018-06-04T06:41:49.349Z,22.20
2018-06-04T06:44:18.035Z,18.93
2018-06-04T06:46:46.728Z,18.87
2018-06-04T06:49:15.414Z,23.93
2018-06-04T06:51:44.093Z,18.17
2018-06-04T06:54:12.742Z,18.80
2018-06-04T06:56:42.238Z,23.77
2018-06-04T06:59:10.922Z,23.00
2018-06-04T07:01:39.546Z,22.50
2018-06-04T07:04:08.213Z,20.93
2018-06-04T07:06:36.849Z,23.00
2018-06-04T07:09:08.374Z,22.80
2018-06-04T07:11:36.975Z,23.90
2018-06-04T07:14:05.714Z,22.40
2018-06-04T07:16:34.354Z,24.77
2018-06-04T07:19:03.182Z,21.00
2018-06-04T07:21:31.907Z,26.23
2018-06-04T07:24:00.569Z,21.57
2018-06-04T07:26:29.314Z,24.40
2018-06-04T07:28:57.926Z,25.27
2018-06-04T07:31:26.608Z,23.87
2018-06-04T07:33:55.270Z,21.80
2018-06-04T07:36:23.581Z,18.57
2018-06-04T07:38:52.302Z,23.70
2018-06-04T07:41:20.965Z,21.67
2018-06-04T07:43:49.617Z,20.20
2018-06-04T07:46:18.273Z,23.57
2018-06-04T07:48:46.950Z,23.83
2018-06-04T07:51:15.569Z,23.83
2018-06-04T07:53:44.207Z,28.37
2018-06-04T07:56:12.924Z,21.40
2018-06-04T07:58:41.581Z,20.87
2018-06-04T08:01:10.222Z,21.57
2018-06-04T08:03:38.910Z,22.37
2018-06-04T08:06:07.580Z,28.73
2018-06-04T08:08:36.254Z,21.93
2018-06-04T08:11:05.039Z,22.63
2018-06-04T08:13:33.681Z,24.40
2018-06-04T08:16:02.346Z,25.00
2018-06-04T08:18:31.015Z,21.43
2018-06-04T08:20:59.654Z,21.20
2018-06-04T08:23:28.301Z,19.77
2018-06-04T08:25:56.941Z,17.47
2018-06-04T08:28:25.602Z,18.97
2018-06-04T08:30:54.367Z,19.07
2018-06-04T08:33:23.010Z,23.40
2018-06-04T08:35:51.637Z,22.67
2018-06-04T08:38:20.314Z,20.67
2018-06-04T08:40:48.965Z,19.77
2018-06-04T08:43:17.628Z,22.27
2018-06-04T08:45:46.402Z,18.83
2018-06-04T08:48:15.087Z,18.47
2018-06-04T08:50:43.786Z,20.10
2018-06-04T08:53:12.451Z,20.77
2018-06-04T08:55:41.083Z,19.67
2018-06-04T08:58:09.730Z,19.13
2018-06-04T09:00:38.470Z,18.67
2018-06-04T09:03:07.170Z,22.10
2018-06-04T09:05:35.848Z,21.73
2018-06-04T09:08:04.564Z,22.27
2018-06-04T09:10:33.216Z,22.43
2018-06-04T09:13:01.898Z,21.33
2018-06-04T09:15:30.608Z,20.73
2018-06-04T09:17:59.281Z,22.57
2018-06-04T09:20:27.923Z,20.63
2018-06-04T09:22:56.626Z,21.30
2018-06-04T09:25:25.254Z,20.80
2018-06-04T09:27:53.935Z,20.80
2018-06-04T09:30:22.614Z,22.97
2018-06-04T09:32:51.258Z,23.87
2018-06-04T09:35:19.895Z,22.60
2018-06-04T09:37:48.581Z,19.00
2018-06-04T09:40:17.282Z,17.07
2018-06-04T09:42:45.954Z,16.53
2018-06-04T09:45:14.658Z,18.40
2018-06-04T09:47:43.339Z,22.53
2018-06-04T09:50:12.030Z,18.40
2018-06-04T09:52:40.720Z,19.77
2018-06-04T09:55:09.614Z,19.80
2018-06-04T09:57:38.268Z,19.47
2018-06-04T10:00:07.110Z,21.30
2018-06-04T10:02:35.761Z,19.00
2018-06-04T10:05:04.478Z,21.60
2018-06-04T10:07:33.174Z,20.23
2018-06-04T10:10:01.810Z,23.20
2018-06-04T10:12:30.498Z,20.10
2018-06-04T10:14:59.186Z,23.67
2018-06-04T10:17:27.830Z,20.17
2018-06-04T10:19:57.192Z,20.10
2018-06-04T10:22:25.912Z,19.10
2018-06-04T10:24:54.578Z,18.27
2018-06-04T10:27:23.243Z,23.10
2018-06-04T10:29:51.895Z,17.37
2018-06-04T10:32:20.573Z,17.37
2018-06-04T10:34:49.246Z,22.37
2018-06-04T10:37:17.930Z,17.40
2018-06-04T10:39:46.593Z,17.30
2018-06-04T10:42:15.245Z,21.23
2018-06-04T10:44:43.922Z,21.85
2018-06-04T10:47:12.759Z,15.70
2018-06-04T10:49:41.379Z,19.57
2018-06-04T10:52:10.030Z,18.43
2018-06-04T10:54:38.669Z,16.43
2018-06-04T10:57:07.345Z,17.00
2018-06-04T10:59:36.037Z,16.47
2018-06-04T11:02:04.802Z,18.23
2018-06-04T11:04:33.442Z,16.20
2018-06-04T11:07:02.121Z,16.77
2018-06-04T11:09:30.744Z,18.67
2018-06-04T11:11:59.388Z,19.83
2018-06-04T11:14:28.058Z,17.43
2018-06-04T11:16:56.710Z,20.17
2018-06-04T11:19:25.358Z,16.13
2018-06-04T11:21:54.006Z,18.50
2018-06-04T11:24:22.669Z,16.33
2018-06-04T11:26:51.299Z,15.90
2018-06-04T11:29:19.974Z,15.37
2018-06-04T11:31:48.642Z,17.80
2018-06-04T11:34:17.319Z,17.23
2018-06-04T11:36:46.014Z,15.60
2018-06-04T11:39:14.783Z,17.97
2018-06-04T11:41:43.522Z,14.93
2018-06-04T11:44:12.242Z,16.43
2018-06-04T11:46:40.902Z,14.93
2018-06-04T11:49:09.582Z,16.27
2018-06-04T11:51:38.246Z,12.53
2018-06-04T11:54:06.553Z,15.27
2018-06-04T11:56:35.237Z,13.63
2018-06-04T11:59:03.933Z,12.30
2018-06-04T12:01:32.594Z,12.63
2018-06-04T12:04:01.222Z,13.43
2018-06-04T12:06:29.941Z,11.13
2018-06-04T12:08:58.671Z,14.13
2018-06-04T12:11:27.348Z,12.93
2018-06-04T12:13:56.067Z,11.73
2018-06-04T12:16:24.738Z,14.10
2018-06-04T12:18:53.390Z,9.23
2018-06-04T12:21:22.039Z,11.97
2018-06-04T12:23:50.701Z,12.23
2018-06-04T12:26:19.342Z,9.80
2018-06-04T12:28:48.044Z,11.53
2018-06-04T12:31:16.826Z,10.77
2018-06-04T12:33:45.487Z,9.33
2018-06-04T12:36:14.176Z,10.53
2018-06-04T12:38:42.834Z,10.00
2018-06-04T12:41:11.555Z,12.40
2018-06-04T12:43:40.221Z,10.33
2018-06-04T12:46:08.860Z,9.07
2018-06-04T12:48:37.494Z,10.43
2018-06-04T12:51:06.132Z,9.70
2018-06-04T12:53:34.778Z,10.20
2018-06-04T12:56:03.085Z,10.27
2018-06-04T12:58:31.757Z,11.23
2018-06-04T13:01:00.473Z,10.93
2018-06-04T13:03:29.174Z,9.73
2018-06-04T13:05:57.850Z,9.87
2018-06-04T13:08:26.506Z,10.43
2018-06-04T13:10:55.178Z,10.90
2018-06-04T13:13:23.826Z,8.53
2018-06-04T13:15:52.554Z,8.70
2018-06-04T13:18:21.360Z,7.42
2018-06-04T13:20:50.071Z,8.18
2018-06-04T13:23:18.811Z,7.40
2018-06-04T13:25:47.489Z,10.98
2018-06-04T13:28:16.180Z,10.25
2018-06-04T13:30:44.791Z,9.63
2018-06-04T13:33:13.417Z,8.08
2018-06-04T13:35:42.089Z,7.33
2018-06-04T13:38:10.725Z,7.60
2018-06-04T13:40:39.358Z,6.78
2018-06-04T13:43:08.030Z,7.97
2018-06-04T13:45:36.732Z,10.17
2018-06-04T13:48:05.364Z,8.20
2018-06-04T13:50:34.075Z,8.20
2018-06-04T13:53:02.688Z,6.67
2018-06-04T13:55:31.308Z,8.70
2018-06-04T13:58:00.030Z,6.50
2018-06-04T14:00:28.709Z,7.47
2018-06-04T14:02:57.392Z,9.17
2018-06-04T14:05:26.072Z,6.40
2018-06-04T14:07:54.745Z,7.93
2018-06-04T14:10:23.525Z,6.40
2018-06-04T14:12:52.229Z,7.47
2018-06-04T14:15:20.857Z,6.23
2018-06-04T14:17:49.493Z,6.13
2018-06-04T14:20:18.143Z,4.80
2018-06-04T14:22:46.786Z,4.63
2018-06-04T14:25:15.399Z,3.97
2018-06-04T14:27:44.045Z,4.83
2018-06-04T14:30:12.733Z,3.83
2018-06-04T14:32:41.389Z,4.30
2018-06-04T14:35:10.079Z,6.17
2018-06-04T14:37:38.740Z,4.43
2018-06-04T14:40:07.393Z,4.47
2018-06-04T14:42:36.133Z,3.07
2018-06-04T14:45:05.069Z,3.87
2018-06-04T14:47:33.754Z,2.70
2018-06-04T14:50:02.465Z,3.30
2018-06-04T14:52:31.102Z,4.27
2018-06-04T14:54:59.745Z,3.50
2018-06-04T14:57:28.399Z,2.97
2018-06-04T14:59:57.041Z,4.33
2018-06-04T15:02:25.795Z,3.37
2018-06-04T15:04:54.433Z,2.93
2018-06-04T15:07:23.090Z,2.83
2018-06-04T15:09:51.769Z,2.63
2018-06-04T15:12:20.450Z,6.10
2018-06-04T15:14:49.065Z,5.53
2018-06-04T15:17:17.689Z,3.13
2018-06-04T15:19:46.357Z,2.97
2018-06-04T15:22:15.049Z,2.87
2018-06-04T15:24:43.720Z,3.03
2018-06-04T15:27:12.393Z,4.30
2018-06-04T15:29:41.065Z,2.23
2018-06-04T15:32:09.780Z,1.73
2018-06-04T15:34:38.423Z,1.90
2018-06-04T15:37:07.117Z,3.07
2018-06-04T15:39:35.753Z,4.50
2018-06-04T15:42:04.446Z,1.80
2018-06-04T15:44:33.150Z,3.37
2018-06-04T15:47:01.453Z,2.30
2018-06-04T15:49:30.129Z,1.60
2018-06-04T15:51:58.785Z,2.07
2018-06-04T15:54:27.537Z,2.98
2018-06-04T15:56:56.216Z,2.20
2018-06-04T15:59:24.861Z,2.67
2018-06-04T16:01:53.501Z,2.13
2018-06-04T16:04:22.173Z,2.40
2018-06-04T16:06:50.872Z,1.97
2018-06-04T16:09:19.517Z,1.67
2018-06-04T16:11:48.159Z,4.20
2018-06-04T16:14:16.809Z,1.07
2018-06-04T16:16:45.449Z,1.40
2018-06-04T16:19:14.121Z,2.00
2018-06-04T16:21:42.737Z,1.57
2018-06-04T16:24:11.394Z,1.50
2018-06-04T16:26:40.034Z,2.37
2018-06-04T16:29:08.731Z,3.30
2018-06-04T16:31:37.365Z,3.60
2018-06-04T16:34:06.021Z,2.27
2018-06-04T16:36:34.700Z,1.27
2018-06-04T16:39:03.850Z,3.07
2018-06-04T16:41:32.482Z,1.93
2018-06-04T16:44:01.146Z,2.50
2018-06-04T16:46:29.825Z,1.90
2018-06-04T16:48:58.482Z,1.20
2018-06-04T16:51:27.154Z,1.30
2018-06-04T16:53:55.789Z,1.23
2018-06-04T16:56:24.429Z,2.10
2018-06-04T16:58:53.070Z,1.00
2018-06-04T17:01:21.758Z,1.77
2018-06-04T17:03:50.453Z,3.40
2018-06-04T17:06:19.117Z,1.00
2018-06-04T17:08:47.779Z,1.87
2018-06-04T17:11:16.430Z,2.03
2018-06-04T17:13:45.066Z,1.90
2018-06-04T17:16:13.725Z,0.80
2018-06-04T17:18:42.389Z,1.23
2018-06-04T17:21:11.010Z,1.97
2018-06-04T17:23:39.809Z,0.90
2018-06-04T17:26:08.465Z,2.13
2018-06-04T17:28:37.224Z,1.67
2018-06-04T17:31:05.881Z,1.37
2018-06-04T17:33:34.538Z,1.20
2018-06-04T17:36:04.138Z,1.70
2018-06-04T17:38:32.905Z,2.30
2018-06-04T17:41:01.605Z,1.70
2018-06-04T17:43:30.229Z,0.87
2018-06-04T17:45:58.921Z,1.03
2018-06-04T17:48:27.565Z,1.40
2018-06-04T17:50:56.240Z,2.13
2018-06-04T17:53:24.904Z,2.13
2018-06-04T17:55:53.549Z,2.13
2018-06-04T17:58:22.200Z,0.80
2018-06-04T18:00:50.886Z,0.60
2018-06-04T18:03:19.573Z,1.50
2018-06-04T18:05:48.222Z,2.37
2018-06-04T18:08:16.878Z,1.40
2018-06-04T18:10:45.518Z,1.37
2018-06-04T18:13:14.186Z,1.20
2018-06-04T18:15:42.834Z,0.70
2018-06-04T18:18:11.529Z,1.13
2018-06-04T18:20:40.173Z,0.73
2018-06-04T18:23:08.805Z,2.97
2018-06-04T18:25:37.445Z,1.23
2018-06-04T18:28:06.117Z,1.20
2018-06-04T18:30:34.933Z,2.63
2018-06-04T18:33:03.672Z,1.30
2018-06-04T18:35:32.357Z,6.80
2018-06-04T18:38:00.973Z,0.53
2018-06-04T18:40:29.658Z,1.50
2018-06-04T18:42:58.284Z,1.53
2018-06-04T18:45:26.996Z,0.70
2018-06-04T18:47:55.684Z,3.70
2018-06-04T18:50:24.365Z,0.97
2018-06-04T18:52:53.823Z,1.13
2018-06-04T18:55:22.461Z,2.43
2018-06-04T18:57:51.125Z,0.63
2018-06-04T19:00:19.819Z,0.60
2018-06-04T19:02:48.549Z,0.73
2018-06-04T19:05:17.250Z,2.57
2018-06-04T19:07:45.969Z,0.50
2018-06-04T19:10:14.633Z,1.13
2018-06-04T19:12:42.949Z,1.27
2018-06-04T19:15:11.629Z,1.03
2018-06-04T19:17:40.332Z,1.20
2018-06-04T19:20:09.018Z,1.27
2018-06-04T19:22:37.802Z,1.60
2018-06-04T19:25:06.506Z,1.13
2018-06-04T19:27:35.187Z,1.13
2018-06-04T19:30:04.330Z,1.60
2018-06-04T19:32:33.002Z,1.03
2018-06-04T19:35:01.702Z,2.70
2018-06-04T19:37:30.327Z,2.50
2018-06-04T19:39:59.013Z,1.17
2018-06-04T19:42:27.653Z,0.80
2018-06-04T19:44:56.329Z,0.80
2018-06-04T19:47:24.999Z,0.53
2018-06-04T19:49:53.678Z,1.20
2018-06-04T19:52:22.398Z,1.47
2018-06-04T19:54:51.078Z,3.37
2018-06-04T19:57:19.762Z,0.67
2018-06-04T19:59:48.446Z,1.70
2018-06-04T20:02:17.115Z,3.80
2018-06-04T20:04:45.777Z,1.77
2018-06-04T20:07:14.454Z,0.70
2018-06-04T20:09:43.218Z,1.63
2018-06-04T20:12:11.853Z,1.43
2018-06-04T20:14:40.628Z,3.03
2018-06-04T20:17:09.326Z,2.45
2018-06-04T20:19:38.029Z,0.90
2018-06-04T20:22:06.708Z,1.23
2018-06-04T20:24:35.413Z,1.07
2018-06-04T20:27:04.097Z,1.80
2018-06-04T20:29:32.774Z,0.83
2018-06-04T20:32:01.458Z,0.60
2018-06-04T20:34:30.127Z,1.03
2018-06-04T20:36:58.773Z,1.43
2018-06-04T20:39:27.449Z,1.70
2018-06-04T20:41:56.105Z,1.50
2018-06-04T20:44:24.774Z,1.43
2018-06-04T20:46:53.545Z,0.60
2018-06-04T20:49:22.179Z,0.50
2018-06-04T20:51:50.829Z,1.30
2018-06-04T20:54:19.473Z,0.60
2018-06-04T20:56:48.169Z,2.53
2018-06-04T20:59:16.825Z,1.90
2018-06-04T21:01:45.513Z,0.50
2018-06-04T21:04:13.817Z,1.53
2018-06-04T21:06:42.549Z,2.87
2018-06-04T21:09:10.874Z,1.03
2018-06-04T21:11:39.833Z,0.70
2018-06-04T21:14:08.494Z,1.17
2018-06-04T21:16:37.204Z,0.93
2018-06-04T21:19:05.846Z,0.50
2018-06-04T21:21:34.526Z,0.87
2018-06-04T21:24:03.186Z,2.30
2018-06-04T21:26:31.852Z,0.40
2018-06-04T21:29:00.465Z,2.80
2018-06-04T21:31:29.145Z,2.17
2018-06-04T21:33:57.762Z,1.17
2018-06-04T21:36:26.441Z,0.60
2018-06-04T21:38:55.106Z,0.57
2018-06-04T21:41:23.745Z,1.33
2018-06-04T21:43:52.407Z,2.10
2018-06-04T21:46:21.050Z,0.60
2018-06-04T21:48:49.710Z,2.10
2018-06-04T21:51:18.405Z,1.63
2018-06-04T21:53:47.118Z,1.03
2018-06-04T21:56:15.794Z,1.90
2018-06-04T21:58:44.605Z,0.50
2018-06-04T22:01:13.315Z,1.60
2018-06-04T22:03:41.964Z,1.23
2018-06-04T22:06:10.662Z,0.43
2018-06-04T22:08:39.339Z,0.43
2018-06-04T22:11:08.054Z,3.17
2018-06-04T22:13:36.714Z,1.23
2018-06-04T22:16:05.498Z,1.33
2018-06-04T22:18:34.207Z,2.00
2018-06-04T22:21:02.861Z,0.40
2018-06-04T22:23:31.515Z,1.03
2018-06-04T22:26:00.173Z,2.40
2018-06-04T22:28:28.809Z,0.60
2018-06-04T22:30:57.486Z,0.53
2018-06-04T22:33:26.185Z,0.30
2018-06-04T22:35:54.849Z,1.10
2018-06-04T22:38:23.538Z,1.33
2018-06-04T22:40:52.145Z,0.77
2018-06-04T22:43:20.819Z,0.97
2018-06-04T22:45:50.614Z,0.43
2018-06-04T22:48:19.298Z,0.43
2018-06-04T22:50:48.006Z,0.30
2018-06-04T22:53:16.752Z,0.37
2018-06-04T22:55:45.397Z,1.00
2018-06-04T22:58:14.038Z,0.30
2018-06-04T23:00:42.766Z,0.30
2018-06-04T23:03:11.452Z,0.40
2018-06-04T23:05:40.191Z,0.40
2018-06-04T23:08:08.905Z,0.40
2018-06-04T23:10:37.585Z,0.70
2018-06-04T23:13:06.245Z,0.73
2018-06-04T23:15:34.913Z,0.57
2018-06-04T23:18:03.593Z,0.65
2018-06-04T23:20:32.230Z,0.30
2018-06-04T23:23:00.937Z,0.83
2018-06-04T23:25:29.560Z,0.63
2018-06-04T23:27:58.206Z,0.30
2018-06-04T23:30:26.885Z,1.00
2018-06-04T23:32:55.558Z,0.30
2018-06-04T23:35:24.230Z,1.07
2018-06-04T23:37:52.925Z,1.27
2018-06-04T23:40:21.594Z,1.00
2018-06-04T23:42:50.393Z,0.70
2018-06-04T23:45:19.049Z,0.77
2018-06-04T23:47:47.701Z,1.10
2018-06-04T23:50:16.389Z,0.20
2018-06-04T23:52:45.062Z,0.77
2018-06-04T23:55:13.701Z,0.37
2018-06-04T23:57:42.369Z,0.83
